createdAt,value
2018-08-24T00:01:04.422Z,63.40
2018-08-24T00:03:32.699Z,63.40
2018-08-24T00:06:00.990Z,64.10
2018-08-24T00:08:29.463Z,63.40
2018-08-24T00:10:57.717Z,63.70
2018-08-24T00:13:26.106Z,63.30
2018-08-24T00:15:54.487Z,63.60
2018-08-24T00:18:22.835Z,63.80
2018-08-24T00:20:51.227Z,63.80
2018-08-24T00:23:19.477Z,64.40
2018-08-24T00:25:47.711Z,68.40
2018-08-24T00:28:15.963Z,70.30
2018-08-24T00:30:44.399Z,71.80
2018-08-24T00:33:12.706Z,72.90
2018-08-24T00:35:41.018Z,74.10
2018-08-24T00:38:09.274Z,74.90
2018-08-24T00:40:37.519Z,75.80
2018-08-24T00:43:05.838Z,77.20
2018-08-24T00:45:34.139Z,78.60
2018-08-24T00:48:09.049Z,79.70
2018-08-24T00:50:37.308Z,80.40
2018-08-24T00:53:05.551Z,81.60
2018-08-24T00:55:33.834Z,82.90
2018-08-24T00:58:02.074Z,83.60
2018-08-24T01:00:35.637Z,83.80
2018-08-24T01:03:04.041Z,84.10
2018-08-24T01:05:32.271Z,83.70
2018-08-24T01:08:05.814Z,84.70
2018-08-24T01:10:34.283Z,83.90
2018-08-24T01:13:02.593Z,84.50
2018-08-24T01:16:02.844Z,84.30
2018-08-24T01:18:36.439Z,84.60
2018-08-24T01:21:04.711Z,84.70
2018-08-24T01:23:34.026Z,84.80
2018-08-24T01:26:02.264Z,85.00
2018-08-24T01:28:31.620Z,85.90
2018-08-24T01:31:08.486Z,85.90
2018-08-24T01:33:36.730Z,85.40
2018-08-24T01:36:05.038Z,85.00
2018-08-24T01:38:33.311Z,83.70
2018-08-24T01:41:01.581Z,83.00
2018-08-24T01:43:29.810Z,82.50
2018-08-24T01:46:03.478Z,82.60
2018-08-24T01:48:31.775Z,82.40
2018-08-24T01:50:59.995Z,82.30
2018-08-24T01:53:28.284Z,81.50
2018-08-24T01:55:56.625Z,81.40
2018-08-24T01:58:24.943Z,80.90
2018-08-24T02:00:53.170Z,80.40
2018-08-24T02:03:21.433Z,80.20
2018-08-24T02:05:49.803Z,80.20
2018-08-24T02:08:18.051Z,80.00
2018-08-24T02:10:46.260Z,80.00
2018-08-24T02:13:19.854Z,79.50
2018-08-24T02:15:48.147Z,79.50
2018-08-24T02:18:21.887Z,78.90
2018-08-24T02:20:55.826Z,78.60
2018-08-24T02:23:24.034Z,78.60
2018-08-24T02:25:52.333Z,78.90
2018-08-24T02:28:20.579Z,79.00
2018-08-24T02:30:48.820Z,79.60
2018-08-24T02:33:17.054Z,79.50
2018-08-24T02:35:45.309Z,79.10
2018-08-24T02:38:13.584Z,79.40
2018-08-24T02:40:41.876Z,79.70
2018-08-24T02:43:10.138Z,79.30
2018-08-24T02:45:38.413Z,79.20
2018-08-24T02:48:06.707Z,79.40
2018-08-24T02:50:34.987Z,79.80
2018-08-24T02:53:03.363Z,79.20
2018-08-24T02:55:31.611Z,79.30
2018-08-24T02:57:59.836Z,79.10
2018-08-24T03:00:28.089Z,78.90
2018-08-24T03:02:56.462Z,79.10
2018-08-24T03:05:24.903Z,79.00
2018-08-24T03:07:53.123Z,78.90
2018-08-24T03:10:21.494Z,79.00
2018-08-24T03:12:49.751Z,78.90
2018-08-24T03:15:18.044Z,79.30
2018-08-24T03:17:51.823Z,79.10
2018-08-24T03:20:20.156Z,78.50
2018-08-24T03:22:48.480Z,78.50
2018-08-24T03:25:16.741Z,78.60
2018-08-24T03:27:45.033Z,78.40
2018-08-24T03:30:13.271Z,78.50
2018-08-24T03:32:41.512Z,78.40
2018-08-24T03:35:09.750Z,78.50
2018-08-24T03:37:37.982Z,78.30
2018-08-24T03:40:06.437Z,78.70
2018-08-24T03:42:34.686Z,78.50
2018-08-24T03:45:02.886Z,78.30
2018-08-24T03:47:31.162Z,77.70
2018-08-24T03:49:59.478Z,77.70
2018-08-24T03:52:27.893Z,77.40
2018-08-24T03:54:56.793Z,77.20
2018-08-24T03:57:25.103Z,77.40
2018-08-24T03:59:53.361Z,77.10
2018-08-24T04:02:21.615Z,76.90
2018-08-24T04:04:49.885Z,76.40
2018-08-24T04:07:18.154Z,76.40
2018-08-24T04:09:46.476Z,76.50
2018-08-24T04:12:14.680Z,76.40
2018-08-24T04:14:42.939Z,76.50
2018-08-24T04:17:16.659Z,75.50
2018-08-24T04:19:44.944Z,76.00
2018-08-24T04:22:13.191Z,76.00
2018-08-24T04:24:41.555Z,75.90
2018-08-24T04:27:09.800Z,75.90
2018-08-24T04:29:38.025Z,76.00
2018-08-24T04:32:06.304Z,75.80
2018-08-24T04:34:34.597Z,75.90
2018-08-24T04:37:02.862Z,75.10
2018-08-24T04:39:31.146Z,75.60
2018-08-24T04:41:59.490Z,75.70
2018-08-24T04:44:27.788Z,75.30
2018-08-24T04:46:56.049Z,75.40
2018-08-24T04:49:24.433Z,75.40
2018-08-24T04:51:52.612Z,75.70
2018-08-24T04:54:20.856Z,75.70
2018-08-24T04:56:49.178Z,76.10
2018-08-24T04:59:17.482Z,76.50
2018-08-24T05:01:45.710Z,76.50
2018-08-24T05:04:13.950Z,76.90
2018-08-24T05:06:42.190Z,77.00
2018-08-24T05:09:10.996Z,77.10
2018-08-24T05:11:43.224Z,77.10
2018-08-24T05:14:11.973Z,76.80
2018-08-24T05:16:40.206Z,76.80
2018-08-24T05:19:08.482Z,76.80
2018-08-24T05:21:36.772Z,77.00
2018-08-24T05:24:05.060Z,77.10
2018-08-24T05:26:33.486Z,77.20
2018-08-24T05:29:01.898Z,77.10
2018-08-24T05:31:30.504Z,77.10
2018-08-24T05:33:59.059Z,76.80
2018-08-24T05:36:27.360Z,76.40
2018-08-24T05:38:55.845Z,76.30
2018-08-24T05:41:24.201Z,76.30
2018-08-24T05:43:53.593Z,76.10
2018-08-24T05:46:21.907Z,75.80
2018-08-24T05:48:50.560Z,75.90
2018-08-24T05:51:18.841Z,75.90
2018-08-24T05:53:47.169Z,75.70
2018-08-24T05:56:15.454Z,75.60
2018-08-24T05:58:43.690Z,75.20
2018-08-24T06:01:11.973Z,74.90
2018-08-24T06:03:40.462Z,74.80
2018-08-24T06:06:08.701Z,75.10
2018-08-24T06:08:37.007Z,74.80
2018-08-24T06:11:05.280Z,74.80
2018-08-24T06:13:33.558Z,74.30
2018-08-24T06:16:01.830Z,74.20
2018-08-24T06:18:29.989Z,74.70
2018-08-24T06:20:58.235Z,74.70
2018-08-24T06:23:26.492Z,74.60
2018-08-24T06:25:54.710Z,74.50
2018-08-24T06:28:23.018Z,74.20
2018-08-24T06:30:51.231Z,74.20
2018-08-24T06:33:22.646Z,73.70
2018-08-24T06:35:51.524Z,73.30
2018-08-24T06:38:19.846Z,72.90
2018-08-24T06:40:48.059Z,72.80
2018-08-24T06:43:16.269Z,72.80
2018-08-24T06:45:44.562Z,72.70
2018-08-24T06:48:12.770Z,72.50
2018-08-24T06:50:40.978Z,72.50
2018-08-24T06:53:09.342Z,72.20
2018-08-24T06:55:37.489Z,72.20
2018-08-24T06:58:05.778Z,72.60
2018-08-24T07:00:34.008Z,72.60
2018-08-24T07:03:02.768Z,72.30
2018-08-24T07:05:31.328Z,72.70
2018-08-24T07:07:59.597Z,72.70
2018-08-24T07:10:27.833Z,72.30
2018-08-24T07:12:56.162Z,72.10
2018-08-24T07:15:24.338Z,72.10
2018-08-24T07:17:57.899Z,72.20
2018-08-24T07:20:26.163Z,71.80
2018-08-24T07:22:54.382Z,72.10
2018-08-24T07:25:22.584Z,72.20
2018-08-24T07:27:50.773Z,72.30
2018-08-24T07:30:19.223Z,71.80
2018-08-24T07:32:47.433Z,72.20
2018-08-24T07:35:15.731Z,73.30
2018-08-24T07:37:43.974Z,73.10
2018-08-24T07:40:12.449Z,72.90
2018-08-24T07:42:40.666Z,72.20
2018-08-24T07:45:08.938Z,72.00
2018-08-24T07:47:37.241Z,71.70
2018-08-24T07:50:05.547Z,72.10
2018-08-24T07:52:34.180Z,71.50
2018-08-24T07:55:02.831Z,71.10
2018-08-24T07:57:31.482Z,71.00
2018-08-24T08:00:00.265Z,70.70
2018-08-24T08:02:33.997Z,70.30
2018-08-24T08:05:02.555Z,70.80
2018-08-24T08:07:31.174Z,70.40
2018-08-24T08:09:59.985Z,70.80
2018-08-24T08:12:28.765Z,70.50
2018-08-24T08:15:02.715Z,71.10
2018-08-24T08:17:31.313Z,71.10
2018-08-24T08:19:59.941Z,71.60
2018-08-24T08:22:28.486Z,71.30
2018-08-24T08:24:56.697Z,71.80
2018-08-24T08:27:24.956Z,71.90
2018-08-24T08:29:58.554Z,71.90
2018-08-24T08:32:27.110Z,71.80
2018-08-24T08:34:55.344Z,71.40
2018-08-24T08:37:24.139Z,70.70
2018-08-24T08:39:53.091Z,70.70
2018-08-24T08:42:21.849Z,70.30
2018-08-24T08:44:50.074Z,70.50
2018-08-24T08:47:18.371Z,70.20
2018-08-24T08:49:46.587Z,70.10
2018-08-24T08:52:15.014Z,69.50
2018-08-24T08:54:43.406Z,69.60
2018-08-24T08:57:11.643Z,69.10
2018-08-24T08:59:39.881Z,68.80
2018-08-24T09:02:10.254Z,68.30
2018-08-24T09:04:39.325Z,68.00
2018-08-24T09:07:07.631Z,67.30
2018-08-24T09:09:36.209Z,66.60
2018-08-24T09:12:05.037Z,65.60
2018-08-24T09:14:33.344Z,66.00
2018-08-24T09:17:05.978Z,66.30
2018-08-24T09:19:40.047Z,66.10
2018-08-24T09:22:13.929Z,65.80
2018-08-24T09:24:47.772Z,66.40
2018-08-24T09:27:21.480Z,66.10
2018-08-24T09:29:49.772Z,65.70
2018-08-24T09:32:18.198Z,65.00
2018-08-24T09:34:46.513Z,65.40
2018-08-24T09:37:20.190Z,62.90
2018-08-24T09:39:48.544Z,63.30
2018-08-24T09:42:16.922Z,63.70
2018-08-24T09:44:45.183Z,63.30
2018-08-24T09:47:18.898Z,63.50
2018-08-24T09:49:48.269Z,62.90
2018-08-24T09:52:22.035Z,60.90
2018-08-24T09:54:50.390Z,61.60
2018-08-24T09:57:18.633Z,61.90
2018-08-24T09:59:46.866Z,62.00
2018-08-24T10:02:20.620Z,61.40
2018-08-24T10:04:54.252Z,60.10
2018-08-24T10:07:28.272Z,59.00
2018-08-24T10:09:57.049Z,58.40
2018-08-24T10:12:25.390Z,57.10
2018-08-24T10:14:53.674Z,56.10
2018-08-24T10:17:26.435Z,56.40
2018-08-24T10:19:54.766Z,57.00
2018-08-24T10:22:23.934Z,57.70
2018-08-24T10:24:52.167Z,57.60
2018-08-24T10:27:20.780Z,56.70
2018-08-24T10:29:49.099Z,57.50
2018-08-24T10:32:17.450Z,55.90
2018-08-24T10:34:46.442Z,55.80
2018-08-24T10:37:14.742Z,56.00
2018-08-24T10:39:43.015Z,55.50
2018-08-24T10:42:11.470Z,54.30
2018-08-24T10:44:40.610Z,54.80
2018-08-24T10:47:08.957Z,53.70
2018-08-24T10:49:37.320Z,54.50
2018-08-24T10:52:06.034Z,54.50
2018-08-24T10:54:34.274Z,54.40
2018-08-24T10:57:02.523Z,52.90
2018-08-24T10:59:30.811Z,52.50
2018-08-24T11:01:59.088Z,50.60
2018-08-24T11:04:27.450Z,50.00
2018-08-24T11:06:56.107Z,50.20
2018-08-24T11:09:24.476Z,50.20
2018-08-24T11:11:52.811Z,49.80
2018-08-24T11:14:21.137Z,48.80
2018-08-24T11:16:49.542Z,48.70
2018-08-24T11:19:17.844Z,47.80
2018-08-24T11:21:46.069Z,47.60
2018-08-24T11:24:14.307Z,47.70
2018-08-24T11:26:42.592Z,47.70
2018-08-24T11:29:11.265Z,48.10
2018-08-24T11:31:39.484Z,48.20
2018-08-24T11:34:07.723Z,47.90
2018-08-24T11:36:36.311Z,46.70
2018-08-24T11:39:06.354Z,46.00
2018-08-24T11:41:35.004Z,45.40
2018-08-24T11:44:03.534Z,44.70
2018-08-24T11:46:31.772Z,43.70
2018-08-24T11:49:00.073Z,43.20
2018-08-24T11:51:28.346Z,43.40
2018-08-24T11:53:56.626Z,43.30
2018-08-24T11:56:24.885Z,43.20
2018-08-24T11:58:53.852Z,43.80
2018-08-24T12:01:22.134Z,42.60
2018-08-24T12:03:50.431Z,42.80
2018-08-24T12:06:18.742Z,42.60
2018-08-24T12:08:47.061Z,42.30
2018-08-24T12:11:15.683Z,40.80
2018-08-24T12:13:43.937Z,40.60
2018-08-24T12:16:18.507Z,38.70
2018-08-24T12:18:46.750Z,38.60
2018-08-24T12:21:15.019Z,39.20
2018-08-24T12:23:43.319Z,38.60
2018-08-24T12:26:11.623Z,37.20
2018-08-24T12:28:42.801Z,35.60
2018-08-24T12:31:11.039Z,36.40
2018-08-24T12:33:39.654Z,36.70
2018-08-24T12:36:11.863Z,35.60
2018-08-24T12:38:40.100Z,35.80
2018-08-24T12:41:08.340Z,35.90
2018-08-24T12:43:36.674Z,34.60
2018-08-24T12:46:05.281Z,33.80
2018-08-24T12:48:33.564Z,34.00
2018-08-24T12:51:01.797Z,35.20
2018-08-24T12:53:30.071Z,34.60
2018-08-24T12:55:58.310Z,33.60
2018-08-24T12:58:26.635Z,33.50
2018-08-24T13:00:54.980Z,33.40
2018-08-24T13:03:23.225Z,32.90
2018-08-24T13:05:51.470Z,33.30
2018-08-24T13:08:19.714Z,34.10
2018-08-24T13:10:47.957Z,33.50
2018-08-24T13:13:16.315Z,33.20
2018-08-24T13:15:44.600Z,32.80
2018-08-24T13:18:13.005Z,32.70
2018-08-24T13:20:41.257Z,33.30
2018-08-24T13:23:09.582Z,32.40
2018-08-24T13:25:37.921Z,32.70
2018-08-24T13:28:06.350Z,32.50
2018-08-24T13:30:34.898Z,32.70
2018-08-24T13:33:06.411Z,32.50
2018-08-24T13:35:34.742Z,32.50
2018-08-24T13:38:03.038Z,32.00
2018-08-24T13:40:31.291Z,31.20
2018-08-24T13:43:00.522Z,32.10
2018-08-24T13:45:29.206Z,32.90
2018-08-24T13:47:58.366Z,33.40
2018-08-24T13:50:26.780Z,33.40
2018-08-24T13:52:55.103Z,33.30
2018-08-24T13:55:23.367Z,33.60
2018-08-24T13:57:52.766Z,33.50
2018-08-24T14:00:20.989Z,34.10
2018-08-24T14:02:49.278Z,33.10
2018-08-24T14:05:17.536Z,32.50
2018-08-24T14:07:45.761Z,32.20
2018-08-24T14:10:13.992Z,32.10
2018-08-24T14:12:44.663Z,31.60
2018-08-24T14:15:14.664Z,31.40
2018-08-24T14:17:47.157Z,31.50
2018-08-24T14:20:18.227Z,32.30
2018-08-24T14:22:46.488Z,31.80
2018-08-24T14:25:14.835Z,31.90
2018-08-24T14:27:43.256Z,32.40
2018-08-24T14:30:11.649Z,32.80
2018-08-24T14:32:39.980Z,33.40
2018-08-24T14:35:08.494Z,33.80
2018-08-24T14:37:36.766Z,33.70
2018-08-24T14:40:05.329Z,34.00
2018-08-24T14:42:34.503Z,33.30
2018-08-24T14:45:02.731Z,33.00
2018-08-24T14:47:31.078Z,33.20
2018-08-24T14:49:59.335Z,32.80
2018-08-24T14:52:27.639Z,33.40
2018-08-24T14:54:55.833Z,33.20
2018-08-24T14:57:24.280Z,33.20
2018-08-24T14:59:53.150Z,33.00
2018-08-24T15:02:21.376Z,33.10
2018-08-24T15:04:49.649Z,33.70
2018-08-24T15:07:17.922Z,34.20
2018-08-24T15:09:46.230Z,34.40
2018-08-24T15:12:14.618Z,34.30
2018-08-24T15:17:22.138Z,34.60
2018-08-24T15:19:50.400Z,34.00
2018-08-24T15:22:18.630Z,34.40
2018-08-24T15:24:46.945Z,34.40
2018-08-24T15:27:15.227Z,34.00
2018-08-24T15:29:43.519Z,34.30
2018-08-24T15:32:11.726Z,34.20
2018-08-24T15:34:39.962Z,34.10
2018-08-24T15:37:08.287Z,34.70
2018-08-24T15:39:36.577Z,35.50
2018-08-24T15:42:04.927Z,35.30
2018-08-24T15:44:33.306Z,35.20
2018-08-24T15:47:01.604Z,35.10
2018-08-24T15:49:36.566Z,35.20
2018-08-24T15:52:04.921Z,34.80
2018-08-24T15:54:33.180Z,35.20
2018-08-24T15:57:01.490Z,33.90
2018-08-24T15:59:29.733Z,33.60
2018-08-24T16:01:58.022Z,34.00
2018-08-24T16:04:26.269Z,32.70
2018-08-24T16:06:54.710Z,32.20
2018-08-24T16:09:22.972Z,32.20
2018-08-24T16:11:51.289Z,32.20
2018-08-24T16:14:19.678Z,32.40
2018-08-24T16:16:47.886Z,32.70
2018-08-24T16:19:16.174Z,33.00
2018-08-24T16:21:44.406Z,33.40
2018-08-24T16:24:12.707Z,34.00
2018-08-24T16:26:40.977Z,34.30
2018-08-24T16:29:09.275Z,34.80
2018-08-24T16:31:44.190Z,34.60
2018-08-24T16:34:12.462Z,34.40
2018-08-24T16:36:41.071Z,34.20
2018-08-24T16:39:10.026Z,34.40
2018-08-24T16:41:38.655Z,36.30
2018-08-24T16:44:07.508Z,37.60
2018-08-24T16:46:35.907Z,38.40
2018-08-24T16:49:04.542Z,39.00
2018-08-24T16:51:32.866Z,39.40
2018-08-24T16:54:01.175Z,39.80
2018-08-24T16:56:29.450Z,39.80
2018-08-24T16:58:57.855Z,40.00
2018-08-24T17:01:26.226Z,40.10
2018-08-24T17:03:54.700Z,39.90
2018-08-24T17:06:22.870Z,39.70
2018-08-24T17:08:54.126Z,40.30
2018-08-24T17:11:22.592Z,39.70
2018-08-24T17:13:50.885Z,39.90
2018-08-24T17:16:19.973Z,38.80
2018-08-24T17:18:48.531Z,39.60
2018-08-24T17:21:16.770Z,39.00
2018-08-24T17:23:45.012Z,39.10
2018-08-24T17:26:13.245Z,39.20
2018-08-24T17:28:41.610Z,39.40
2018-08-24T17:31:09.946Z,39.50
2018-08-24T17:33:38.411Z,39.40
2018-08-24T17:36:06.706Z,39.70
2018-08-24T17:38:35.035Z,39.70
2018-08-24T17:41:03.283Z,39.90
2018-08-24T17:43:31.546Z,40.20
2018-08-24T17:45:59.803Z,40.20
2018-08-24T17:48:28.139Z,40.00
2018-08-24T17:50:56.429Z,40.10
2018-08-24T17:53:24.684Z,40.20
2018-08-24T17:55:52.926Z,40.30
2018-08-24T17:58:21.152Z,40.10
2018-08-24T18:00:49.754Z,40.30
2018-08-24T18:03:17.999Z,40.60
2018-08-24T18:05:46.227Z,40.50
2018-08-24T18:08:14.435Z,40.50
2018-08-24T18:10:42.698Z,40.40
2018-08-24T18:13:11.021Z,40.50
2018-08-24T18:15:39.342Z,40.50
2018-08-24T18:18:07.618Z,40.80
2018-08-24T18:20:36.072Z,40.90
2018-08-24T18:23:04.521Z,40.90
2018-08-24T18:25:32.891Z,40.80
2018-08-24T18:28:01.402Z,41.00
2018-08-24T18:30:29.741Z,41.10
2018-08-24T18:32:58.130Z,41.10
2018-08-24T18:35:26.394Z,41.10
2018-08-24T18:37:54.684Z,41.30
2018-08-24T18:40:22.944Z,41.50
2018-08-24T18:42:51.222Z,41.40
2018-08-24T18:45:19.590Z,41.40
2018-08-24T18:47:47.971Z,41.30
2018-08-24T18:50:16.198Z,41.40
2018-08-24T18:52:44.466Z,41.40
2018-08-24T18:55:12.752Z,41.40
2018-08-24T18:57:41.050Z,41.20
2018-08-24T19:00:09.366Z,41.10
2018-08-24T19:02:37.969Z,41.20
2018-08-24T19:05:06.311Z,41.30
2018-08-24T19:07:34.549Z,41.50
2018-08-24T19:10:02.859Z,41.60
2018-08-24T19:12:31.125Z,41.50
2018-08-24T19:14:59.423Z,41.70
2018-08-24T19:17:33.167Z,41.70
2018-08-24T19:20:06.841Z,41.80
2018-08-24T19:22:35.120Z,42.00
2018-08-24T19:25:03.454Z,42.20
2018-08-24T19:27:37.199Z,42.30
2018-08-24T19:30:10.958Z,42.30
2018-08-24T19:32:39.390Z,42.50
2018-08-24T19:35:07.595Z,42.50
2018-08-24T19:37:35.925Z,42.70
2018-08-24T19:40:09.758Z,42.70
2018-08-24T19:42:38.029Z,42.60
2018-08-24T19:45:06.434Z,42.70
2018-08-24T19:47:40.073Z,42.70
2018-08-24T19:50:08.558Z,42.60
2018-08-24T19:52:36.823Z,42.50
2018-08-24T19:55:05.157Z,42.60
2018-08-24T19:57:39.457Z,42.70
2018-08-24T20:00:07.794Z,42.70
2018-08-24T20:02:36.078Z,42.80
2018-08-24T20:05:11.078Z,42.80
2018-08-24T20:07:44.869Z,42.90
2018-08-24T20:10:16.091Z,42.80
2018-08-24T20:12:44.848Z,42.90
2018-08-24T20:15:18.642Z,43.10
2018-08-24T20:17:46.949Z,43.00
2018-08-24T20:20:16.383Z,43.10
2018-08-24T20:22:45.816Z,43.10
2018-08-24T20:25:14.177Z,43.30
2018-08-24T20:27:42.694Z,43.30
2018-08-24T20:30:11.023Z,43.50
2018-08-24T20:32:39.367Z,43.50
2018-08-24T20:35:07.629Z,44.20
2018-08-24T20:37:35.966Z,44.00
2018-08-24T20:40:04.948Z,44.30
2018-08-24T20:42:34.010Z,44.00
2018-08-24T20:45:02.242Z,43.90
2018-08-24T20:47:30.554Z,44.20
2018-08-24T20:50:00.036Z,44.30
2018-08-24T20:52:28.349Z,44.20
2018-08-24T20:54:56.651Z,44.10
2018-08-24T20:57:24.875Z,43.90
2018-08-24T20:59:53.198Z,43.80
2018-08-24T21:02:21.473Z,43.60
2018-08-24T21:04:49.777Z,43.80
2018-08-24T21:07:18.150Z,44.00
2018-08-24T21:09:46.740Z,44.10
2018-08-24T21:12:15.011Z,44.40
2018-08-24T21:14:43.358Z,45.00
2018-08-24T21:17:11.698Z,45.20
2018-08-24T21:19:39.959Z,44.50
2018-08-24T21:22:08.418Z,43.90
2018-08-24T21:24:36.722Z,43.80
2018-08-24T21:27:05.112Z,44.00
2018-08-24T21:29:33.636Z,43.90
2018-08-24T21:32:02.026Z,44.40
2018-08-24T21:34:30.822Z,44.80
2018-08-24T21:36:59.063Z,44.80
2018-08-24T21:39:27.580Z,44.80
2018-08-24T21:41:55.879Z,44.40
2018-08-24T21:44:24.151Z,44.30
2018-08-24T21:46:52.437Z,44.30
2018-08-24T21:49:20.807Z,44.60
2018-08-24T21:51:49.278Z,44.50
2018-08-24T21:54:17.665Z,43.40
2018-08-24T21:56:46.020Z,43.90
2018-08-24T21:59:14.284Z,44.10
2018-08-24T22:01:42.824Z,44.10
2018-08-24T22:04:11.099Z,44.10
2018-08-24T22:06:39.540Z,43.90
2018-08-24T22:09:09.272Z,43.70
2018-08-24T22:11:38.139Z,43.70
2018-08-24T22:14:06.486Z,44.10
2018-08-24T22:16:34.763Z,44.10
2018-08-24T22:19:03.077Z,43.90
2018-08-24T22:21:31.245Z,43.50
2018-08-24T22:23:59.505Z,44.80
2018-08-24T22:26:27.845Z,44.00
2018-08-24T22:28:56.054Z,44.10
2018-08-24T22:31:24.355Z,44.50
2018-08-24T22:33:52.778Z,44.00
2018-08-24T22:36:21.091Z,44.90
2018-08-24T22:38:49.384Z,44.20
2018-08-24T22:41:17.858Z,44.20
2018-08-24T22:43:46.110Z,44.70
2018-08-24T22:46:14.362Z,44.80
2018-08-24T22:48:42.726Z,44.50
2018-08-24T22:51:10.930Z,44.60
2018-08-24T22:53:39.182Z,44.60
2018-08-24T22:56:07.468Z,44.50
2018-08-24T22:58:35.687Z,44.50
2018-08-24T23:01:03.958Z,45.00
2018-08-24T23:03:32.204Z,44.80
2018-08-24T23:06:00.410Z,44.90
2018-08-24T23:08:28.693Z,44.90
2018-08-24T23:10:56.877Z,44.90
2018-08-24T23:13:25.131Z,45.00
2018-08-24T23:15:53.380Z,45.40
2018-08-24T23:18:21.609Z,45.50
2018-08-24T23:20:49.857Z,45.70
2018-08-24T23:23:18.103Z,45.30
2018-08-24T23:25:46.360Z,45.70
2018-08-24T23:28:14.617Z,45.20
2018-08-24T23:30:42.939Z,45.90
2018-08-24T23:33:11.144Z,45.60
2018-08-24T23:35:39.359Z,45.70
2018-08-24T23:38:07.604Z,46.30
2018-08-24T23:40:35.827Z,45.80
2018-08-24T23:43:10.938Z,46.10
2018-08-24T23:45:39.167Z,46.10
2018-08-24T23:48:07.412Z,46.30
2018-08-24T23:50:35.632Z,46.10
2018-08-24T23:53:03.907Z,46.30
2018-08-24T23:55:32.139Z,46.00
2018-08-24T23:58:00.330Z,46.10
